首页
METAR-TAF:

METAR-TAF

机场 :

Fort Stockton-Pecos County Airport

Fort Stockton, 得克萨斯州, 美国

纬度: 30-54-43N, 经度: 102-55-00W, 海拔: 917米

当前天气观测

该预报发布于41分钟前的22:53 UTC
风速12节,风向东南
温度 37°C
湿度 24%
气压 1015 hPa
能見度: 16.1公里
天空无云

METAR: KFST 152253Z AUTO 14012KT 10SM CLR 37/13 A2996 RMK AO2 SLP088 T03670128

时间: 18:34 (23:34 UTC)

预报

该预报发布于5小时和55分钟前的17:39 UTC
预报有效从15日的 18点(UTC)到 16日的 18点(UTC)
风速11节,风向南转南东
能見度: 10公里
散云层高于8000英尺

TAF: KFST 151739Z 1518/1618 16011KT P6SM SCT080

超过4000个机场的气象观测和天气预报(METAR&TAF报告)。

可查询的气象台以黄色和红色小点在地图上表示。

将鼠标移到小点上方,可查看气象台名称。

然后点击查看天气观测和预报。

如需切换地图:点击带黑十字的绿色按钮放大地图;点击带横线的绿色按钮缩小地图;或者点击绿色箭头查看邻近地区的地图。


METAR-TAF: